createdAt,value
2022-12-01T00:00:03.413Z,7.64
2022-12-01T00:01:03.374Z,7.66
2022-12-01T00:02:03.501Z,7.66
2022-12-01T00:03:03.720Z,7.69
2022-12-01T00:04:03.365Z,7.69
2022-12-01T00:05:03.323Z,7.66
2022-12-01T00:06:03.325Z,7.66
2022-12-01T00:07:03.294Z,7.64
2022-12-01T00:08:03.431Z,7.62
2022-12-01T00:09:03.316Z,7.61
2022-12-01T00:10:03.269Z,7.58
2022-12-01T00:11:03.245Z,7.58
2022-12-01T00:12:03.234Z,7.56
2022-12-01T00:13:03.239Z,7.56
2022-12-01T00:14:03.210Z,7.56
2022-12-01T00:15:03.215Z,7.55
2022-12-01T00:16:03.278Z,7.55
2022-12-01T00:17:03.174Z,7.58
2022-12-01T00:18:03.200Z,7.59
2022-12-01T00:19:03.204Z,7.59
2022-12-01T00:20:03.154Z,7.58
2022-12-01T00:21:03.113Z,7.56
2022-12-01T00:22:03.104Z,7.53
2022-12-01T00:23:03.106Z,7.53
2022-12-01T00:24:03.089Z,7.51
2022-12-01T00:25:03.063Z,7.50
2022-12-01T00:26:03.094Z,7.53
2022-12-01T00:27:03.090Z,7.56
2022-12-01T00:28:03.081Z,7.58
2022-12-01T00:29:03.015Z,7.56
2022-12-01T00:30:03.002Z,7.53
2022-12-01T00:31:02.983Z,7.51
2022-12-01T00:32:03.115Z,7.50
2022-12-01T00:33:02.975Z,7.48
2022-12-01T00:34:05.730Z,7.48
2022-12-01T00:35:03.963Z,7.48
2022-12-01T00:36:02.926Z,7.50
2022-12-01T00:37:02.911Z,7.50
2022-12-01T00:38:02.914Z,7.50
2022-12-01T00:39:02.874Z,7.51
2022-12-01T00:40:02.901Z,7.51
2022-12-01T00:41:02.854Z,7.51
2022-12-01T00:42:02.847Z,7.53
2022-12-01T00:43:02.845Z,7.53
2022-12-01T00:44:02.815Z,7.56
2022-12-01T00:45:02.803Z,7.56
2022-12-01T00:46:02.863Z,7.59
2022-12-01T00:47:02.780Z,7.56
2022-12-01T00:48:02.786Z,7.53
2022-12-01T00:49:02.753Z,7.53
2022-12-01T00:50:02.736Z,7.53
2022-12-01T00:51:02.726Z,7.56
2022-12-01T00:52:02.714Z,7.58
2022-12-01T00:53:02.714Z,7.59
2022-12-01T00:54:02.684Z,7.59
2022-12-01T00:55:02.674Z,7.59
2022-12-01T00:56:02.655Z,7.59
2022-12-01T00:57:02.645Z,7.58
2022-12-01T00:58:02.654Z,7.56
2022-12-01T00:59:09.758Z,7.55
2022-12-01T01:00:02.618Z,7.56
2022-12-01T01:01:02.677Z,7.56
2022-12-01T01:02:02.632Z,7.55
2022-12-01T01:03:02.570Z,7.50
2022-12-01T01:04:02.560Z,7.50
2022-12-01T01:05:02.539Z,7.48
2022-12-01T01:06:02.529Z,7.44
2022-12-01T01:07:02.497Z,7.46
2022-12-01T01:08:02.584Z,7.46
2022-12-01T01:09:02.478Z,7.44
2022-12-01T01:10:02.488Z,7.43
2022-12-01T01:11:02.467Z,7.41
2022-12-01T01:12:02.457Z,7.39
2022-12-01T01:13:02.457Z,7.37
2022-12-01T01:14:02.418Z,7.39
2022-12-01T01:15:02.406Z,7.39
2022-12-01T01:16:02.399Z,7.39
2022-12-01T01:17:02.475Z,7.36
2022-12-01T01:18:02.388Z,7.37
2022-12-01T01:19:02.357Z,7.36
2022-12-01T01:20:02.348Z,7.36
2022-12-01T01:21:02.328Z,7.36
2022-12-01T01:22:02.317Z,7.32
2022-12-01T01:23:02.315Z,7.33
2022-12-01T01:24:02.299Z,7.33
2022-12-01T01:25:02.271Z,7.37
2022-12-01T01:26:02.267Z,7.33
2022-12-01T01:27:02.239Z,7.32
2022-12-01T01:28:02.256Z,7.29
2022-12-01T01:29:02.219Z,7.29
2022-12-01T01:30:02.218Z,7.29
2022-12-01T01:31:02.249Z,7.29
2022-12-01T01:32:02.253Z,7.29
2022-12-01T01:33:02.197Z,7.29
2022-12-01T01:34:02.157Z,7.29
2022-12-01T01:35:02.156Z,7.29
2022-12-01T01:36:02.136Z,7.28
2022-12-01T01:37:02.116Z,7.29
2022-12-01T01:38:02.109Z,7.29
2022-12-01T01:39:02.100Z,7.29
2022-12-01T01:40:02.084Z,7.31
2022-12-01T01:41:02.069Z,7.32
2022-12-01T01:42:02.059Z,7.32
2022-12-01T01:43:02.038Z,7.33
2022-12-01T01:44:02.047Z,7.36
2022-12-01T01:45:02.019Z,7.36
2022-12-01T01:46:02.028Z,7.36
2022-12-01T01:47:01.988Z,7.37
2022-12-01T01:48:01.979Z,7.37
2022-12-01T01:49:01.975Z,7.39
2022-12-01T01:50:01.950Z,7.39
2022-12-01T01:51:01.937Z,7.39
2022-12-01T01:52:01.918Z,7.39
2022-12-01T01:53:01.898Z,7.39
2022-12-01T01:54:01.918Z,7.40
2022-12-01T01:55:01.875Z,7.40
2022-12-01T01:56:01.868Z,7.40
2022-12-01T01:57:01.858Z,7.39
2022-12-01T01:58:01.848Z,7.39
2022-12-01T01:59:01.835Z,7.40
2022-12-01T02:00:01.807Z,7.40
2022-12-01T02:01:01.841Z,7.39
2022-12-01T02:02:01.848Z,7.39
2022-12-01T02:03:01.829Z,7.40
2022-12-01T02:04:01.778Z,7.41
2022-12-01T02:05:01.747Z,7.43
2022-12-01T02:06:04.680Z,7.44
2022-12-01T02:07:01.717Z,7.46
2022-12-01T02:08:01.790Z,7.43
2022-12-01T02:09:01.710Z,7.44
2022-12-01T02:10:01.676Z,7.44
2022-12-01T02:11:01.667Z,7.46
2022-12-01T02:12:01.657Z,7.47
2022-12-01T02:13:01.639Z,7.47
2022-12-01T02:14:01.646Z,7.50
2022-12-01T02:15:01.618Z,7.51
2022-12-01T02:16:01.592Z,7.55
2022-12-01T02:17:01.619Z,7.56
2022-12-01T02:18:01.578Z,7.55
2022-12-01T02:19:01.576Z,7.56
2022-12-01T02:20:01.553Z,7.55
2022-12-01T02:21:01.536Z,7.55
2022-12-01T02:22:01.520Z,7.58
2022-12-01T02:23:01.507Z,7.56
2022-12-01T02:24:01.516Z,7.56
2022-12-01T02:25:01.488Z,7.56
2022-12-01T02:26:01.466Z,7.56
2022-12-01T02:27:01.467Z,7.53
2022-12-01T02:28:01.437Z,7.51
2022-12-01T02:29:01.447Z,7.53
2022-12-01T02:30:01.423Z,7.51
2022-12-01T02:31:01.454Z,7.51
2022-12-01T02:32:01.390Z,7.48
2022-12-01T02:33:01.397Z,7.50
2022-12-01T02:34:01.377Z,7.48
2022-12-01T02:35:01.347Z,7.50
2022-12-01T02:36:01.339Z,7.50
2022-12-01T02:37:01.320Z,7.47
2022-12-01T02:38:01.308Z,7.47
2022-12-01T02:39:01.319Z,7.50
2022-12-01T02:40:01.282Z,7.50
2022-12-01T02:41:01.267Z,7.53
2022-12-01T02:42:01.259Z,7.53
2022-12-01T02:43:01.237Z,7.56
2022-12-01T02:44:01.228Z,7.58
2022-12-01T02:45:01.226Z,7.61
2022-12-01T02:46:01.250Z,7.61
2022-12-01T02:47:01.188Z,7.64
2022-12-01T02:48:01.177Z,7.67
2022-12-01T02:49:01.157Z,7.67
2022-12-01T02:50:01.167Z,7.67
2022-12-01T02:51:01.137Z,7.67
2022-12-01T02:52:01.117Z,7.69
2022-12-01T02:53:01.110Z,7.69
2022-12-01T02:54:01.097Z,7.72
2022-12-01T02:55:01.097Z,7.70
2022-12-01T02:56:01.067Z,7.72
2022-12-01T02:57:01.061Z,7.70
2022-12-01T02:58:01.046Z,7.72
2022-12-01T02:59:01.027Z,7.75
2022-12-01T03:00:01.028Z,7.72
2022-12-01T03:01:01.113Z,7.74
2022-12-01T03:02:00.987Z,7.75
2022-12-01T03:03:01.009Z,7.74
2022-12-01T03:04:00.960Z,7.74
2022-12-01T03:05:00.977Z,7.75
2022-12-01T03:06:00.939Z,7.77
2022-12-01T03:07:00.918Z,7.77
2022-12-01T03:08:00.996Z,7.77
2022-12-01T03:09:00.889Z,7.77
2022-12-01T03:10:00.908Z,7.74
2022-12-01T03:11:00.872Z,7.74
2022-12-01T03:12:00.848Z,7.72
2022-12-01T03:13:00.837Z,7.72
2022-12-01T03:14:00.826Z,7.72
2022-12-01T03:15:00.878Z,7.74
2022-12-01T03:16:00.886Z,7.70
2022-12-01T03:17:00.790Z,7.72
2022-12-01T03:18:00.777Z,7.72
2022-12-01T03:19:00.768Z,7.72
2022-12-01T03:20:00.749Z,7.74
2022-12-01T03:21:00.748Z,7.72
2022-12-01T03:22:00.718Z,7.75
2022-12-01T03:23:00.707Z,7.74
2022-12-01T03:24:00.698Z,7.70
2022-12-01T03:25:00.679Z,7.70
2022-12-01T03:26:00.688Z,7.72
2022-12-01T03:27:00.659Z,7.72
2022-12-01T03:28:20.598Z,7.70
2022-12-01T03:29:01.628Z,7.67
2022-12-01T03:30:00.618Z,7.69
2022-12-01T03:31:00.650Z,7.69
2022-12-01T03:32:00.586Z,7.69
2022-12-01T03:33:00.581Z,7.67
2022-12-01T03:34:00.567Z,7.69
2022-12-01T03:35:00.559Z,7.69
2022-12-01T03:36:00.567Z,7.66
2022-12-01T03:37:00.520Z,7.64
2022-12-01T03:38:00.517Z,7.66
2022-12-01T03:39:00.498Z,7.64
2022-12-01T03:40:01.410Z,7.64
2022-12-01T03:41:00.487Z,7.64
2022-12-01T03:42:00.503Z,7.64
2022-12-01T03:43:00.547Z,7.64
2022-12-01T03:44:00.437Z,7.66
2022-12-01T03:45:00.419Z,7.64
2022-12-01T03:46:00.608Z,7.64
2022-12-01T03:47:00.418Z,7.64
2022-12-01T03:48:00.379Z,7.64
2022-12-01T03:49:00.369Z,7.64
2022-12-01T03:50:00.556Z,7.62
2022-12-01T03:51:00.389Z,7.62
2022-12-01T03:52:00.328Z,7.64
2022-12-01T03:53:00.321Z,7.62
2022-12-01T03:54:00.307Z,7.62
2022-12-01T03:55:00.288Z,7.61
2022-12-01T03:56:00.305Z,7.61
2022-12-01T03:57:00.267Z,7.62
2022-12-01T03:58:00.248Z,7.59
2022-12-01T03:59:00.239Z,7.59
2022-12-01T04:00:00.232Z,7.58
2022-12-01T04:01:00.211Z,7.58
2022-12-01T04:02:00.252Z,7.56
2022-12-01T04:03:00.274Z,7.56
2022-12-01T04:04:00.169Z,7.56
2022-12-01T04:05:00.160Z,7.55
2022-12-01T04:06:00.156Z,7.53
2022-12-01T04:07:00.149Z,7.53
2022-12-01T04:08:00.224Z,7.55
2022-12-01T04:09:00.107Z,7.55
2022-12-01T04:10:00.132Z,7.53
2022-12-01T04:11:00.082Z,7.53
2022-12-01T04:12:00.088Z,7.53
2022-12-01T04:13:00.056Z,7.51
2022-12-01T04:14:00.041Z,7.50
2022-12-01T04:15:00.031Z,7.50
2022-12-01T04:16:00.069Z,7.48
2022-12-01T04:17:00.018Z,7.48
2022-12-01T04:17:59.997Z,7.48
2022-12-01T04:18:59.978Z,7.47
2022-12-01T04:19:59.960Z,7.46
2022-12-01T04:20:59.948Z,7.47
2022-12-01T04:21:59.957Z,7.46
2022-12-01T04:22:59.919Z,7.46
2022-12-01T04:23:59.911Z,7.46
2022-12-01T04:24:59.898Z,7.47
2022-12-01T04:25:59.887Z,7.44
2022-12-01T04:26:59.888Z,7.43
2022-12-01T04:27:59.859Z,7.39
2022-12-01T04:28:59.849Z,7.39
2022-12-01T04:29:59.827Z,7.39
2022-12-01T04:30:59.856Z,7.41
2022-12-01T04:31:59.827Z,7.40
2022-12-01T04:32:59.787Z,7.39
2022-12-01T04:33:59.777Z,7.37
2022-12-01T04:34:59.769Z,7.39
2022-12-01T04:35:59.766Z,7.37
2022-12-01T04:36:59.761Z,7.36
2022-12-01T04:37:59.728Z,7.33
2022-12-01T04:38:59.721Z,7.32
2022-12-01T04:39:59.700Z,7.36
2022-12-01T04:40:59.688Z,7.36
2022-12-01T04:41:59.707Z,7.33
2022-12-01T04:42:59.666Z,7.33
2022-12-01T04:43:59.650Z,7.32
2022-12-01T04:44:59.637Z,7.31
2022-12-01T04:45:59.638Z,7.31
2022-12-01T04:46:59.685Z,7.31
2022-12-01T04:47:59.617Z,7.31
2022-12-01T04:48:59.578Z,7.31
2022-12-01T04:49:59.567Z,7.31
2022-12-01T04:50:59.557Z,7.32
2022-12-01T04:51:59.532Z,7.32
2022-12-01T04:52:59.549Z,7.32
2022-12-01T04:53:59.527Z,7.31
2022-12-01T04:54:59.498Z,7.29
2022-12-01T04:55:59.502Z,7.31
2022-12-01T04:56:59.607Z,7.29
2022-12-01T04:57:59.478Z,7.28
2022-12-01T04:58:59.429Z,7.29
2022-12-01T04:59:59.439Z,7.29
2022-12-01T05:00:59.479Z,7.31
2022-12-01T05:01:59.463Z,7.29
2022-12-01T05:02:59.417Z,7.28
2022-12-01T05:03:59.396Z,7.25
2022-12-01T05:04:59.379Z,7.23
2022-12-01T05:05:59.366Z,7.25
2022-12-01T05:06:59.368Z,7.23
2022-12-01T05:07:59.406Z,7.23
2022-12-01T05:08:59.317Z,7.23
2022-12-01T05:09:59.308Z,7.21
2022-12-01T05:10:59.288Z,7.19
2022-12-01T05:11:59.279Z,7.21
2022-12-01T05:12:59.300Z,7.22
2022-12-01T05:13:59.259Z,7.22
2022-12-01T05:14:59.238Z,7.19
2022-12-01T05:15:59.271Z,7.19
2022-12-01T05:16:59.220Z,7.18
2022-12-01T05:17:59.220Z,7.18
2022-12-01T05:18:59.266Z,7.15
2022-12-01T05:19:59.178Z,7.19
2022-12-01T05:20:59.159Z,7.18
2022-12-01T05:21:59.147Z,7.18
2022-12-01T05:23:07.133Z,7.13
2022-12-01T05:24:00.127Z,7.14
2022-12-01T05:24:59.109Z,7.15
2022-12-01T05:25:59.098Z,7.14
2022-12-01T05:26:59.108Z,7.14
2022-12-01T05:27:59.132Z,7.15
2022-12-01T05:28:59.047Z,7.14
2022-12-01T05:29:59.039Z,7.14
2022-12-01T05:30:59.078Z,7.13
2022-12-01T05:31:59.060Z,7.14
2022-12-01T05:32:59.063Z,7.14
2022-12-01T05:33:59.007Z,7.15
2022-12-01T05:34:58.977Z,7.15
2022-12-01T05:35:58.967Z,7.15
2022-12-01T05:36:58.988Z,7.15
2022-12-01T05:38:01.981Z,7.15
2022-12-01T05:38:59.930Z,7.14
2022-12-01T05:39:58.917Z,7.15
2022-12-01T05:40:58.897Z,7.14
2022-12-01T05:41:58.889Z,7.14
2022-12-01T05:42:58.888Z,7.11
2022-12-01T05:43:58.877Z,7.11
2022-12-01T05:44:58.856Z,7.14
2022-12-01T05:45:58.914Z,7.11
2022-12-01T05:46:58.828Z,7.14
2022-12-01T05:47:58.827Z,7.14
2022-12-01T05:48:58.824Z,7.13
2022-12-01T05:50:03.782Z,7.13
2022-12-01T05:50:59.767Z,7.11
2022-12-01T05:51:58.770Z,7.11
2022-12-01T05:52:58.758Z,7.11
2022-12-01T05:53:59.847Z,7.10
2022-12-01T05:54:59.939Z,7.43
2022-12-01T05:55:58.815Z,7.70
2022-12-01T05:56:59.845Z,7.62
2022-12-01T05:57:58.911Z,7.58
2022-12-01T05:58:58.667Z,7.53
2022-12-01T05:59:58.659Z,7.47
2022-12-01T06:00:58.640Z,7.43
2022-12-01T06:01:58.675Z,7.39
2022-12-01T06:02:58.639Z,7.36
2022-12-01T06:03:58.657Z,7.32
2022-12-01T06:04:58.588Z,7.28
2022-12-01T06:05:58.578Z,7.25
2022-12-01T06:06:58.570Z,7.23
2022-12-01T06:07:58.713Z,7.22
2022-12-01T06:08:58.548Z,7.22
2022-12-01T06:09:58.533Z,7.14
2022-12-01T06:10:58.517Z,7.14
2022-12-01T06:11:58.498Z,7.11
2022-12-01T06:12:58.478Z,7.11
2022-12-01T06:13:58.488Z,7.10
2022-12-01T06:14:58.468Z,7.10
2022-12-01T06:15:58.457Z,7.11
2022-12-01T06:16:58.449Z,7.08
2022-12-01T06:17:58.426Z,7.10
2022-12-01T06:18:58.458Z,7.08
2022-12-01T06:19:58.388Z,7.11
2022-12-01T06:20:58.378Z,7.10
2022-12-01T06:21:58.369Z,7.07
2022-12-01T06:22:58.365Z,7.07
2022-12-01T06:23:58.368Z,7.05
2022-12-01T06:24:58.356Z,7.05
2022-12-01T06:25:58.314Z,7.05
2022-12-01T06:26:58.315Z,7.03
2022-12-01T06:27:58.289Z,7.01
2022-12-01T06:28:58.286Z,7.00
2022-12-01T06:29:58.258Z,7.00
2022-12-01T06:31:03.212Z,6.97
2022-12-01T06:31:59.304Z,6.96
2022-12-01T06:32:58.210Z,6.93
2022-12-01T06:33:58.230Z,6.95
2022-12-01T06:34:58.197Z,6.93
2022-12-01T06:35:58.178Z,6.92
2022-12-01T06:36:58.175Z,6.89
2022-12-01T06:37:58.158Z,6.92
2022-12-01T06:38:58.178Z,6.89
2022-12-01T06:39:58.133Z,6.90
2022-12-01T06:40:58.139Z,6.92
2022-12-01T06:41:58.106Z,6.90
2022-12-01T06:42:58.098Z,6.93
2022-12-01T06:43:58.099Z,6.92
2022-12-01T06:44:58.075Z,6.93
2022-12-01T06:46:01.952Z,6.92
2022-12-01T06:46:58.060Z,6.93
2022-12-01T06:47:58.040Z,6.93
2022-12-01T06:48:58.047Z,6.93
2022-12-01T06:49:58.018Z,6.93
2022-12-01T06:50:57.990Z,6.93
2022-12-01T06:52:00.715Z,6.92
2022-12-01T06:52:59.347Z,6.92
2022-12-01T06:54:03.795Z,6.92
2022-12-01T06:54:58.939Z,6.90
2022-12-01T06:55:57.931Z,6.93
2022-12-01T06:56:57.927Z,6.90
2022-12-01T06:57:57.899Z,6.93
2022-12-01T06:58:57.898Z,6.95
2022-12-01T06:59:57.867Z,6.95
2022-12-01T07:00:57.924Z,6.95
2022-12-01T07:01:57.927Z,6.96
2022-12-01T07:02:57.925Z,6.95
2022-12-01T07:03:57.827Z,6.96
2022-12-01T07:04:57.808Z,6.93
2022-12-01T07:05:57.796Z,6.90
2022-12-01T07:06:57.777Z,6.90
2022-12-01T07:07:59.715Z,6.92
2022-12-01T07:08:57.777Z,6.90
2022-12-01T07:09:57.738Z,6.90
2022-12-01T07:10:57.729Z,6.89
2022-12-01T07:11:57.708Z,6.89
2022-12-01T07:12:57.699Z,6.89
2022-12-01T07:13:57.707Z,6.87
2022-12-01T07:14:57.686Z,6.89
2022-12-01T07:15:57.658Z,6.86
2022-12-01T07:16:57.718Z,6.86
2022-12-01T07:17:57.639Z,6.83
2022-12-01T07:18:57.652Z,6.83
2022-12-01T07:19:57.617Z,6.82
2022-12-01T07:20:57.598Z,6.83
2022-12-01T07:21:57.601Z,6.82
2022-12-01T07:22:57.568Z,6.83
2022-12-01T07:23:57.577Z,6.83
2022-12-01T07:24:57.562Z,6.83
2022-12-01T07:25:57.527Z,6.83
2022-12-01T07:26:57.525Z,6.86
2022-12-01T07:27:57.517Z,6.85
2022-12-01T07:28:57.508Z,6.83
2022-12-01T07:29:57.484Z,6.82
2022-12-01T07:30:57.508Z,6.80
2022-12-01T07:31:57.458Z,6.82
2022-12-01T07:32:57.457Z,6.82
2022-12-01T07:33:57.440Z,6.80
2022-12-01T07:34:57.455Z,6.80
2022-12-01T07:35:57.389Z,6.78
2022-12-01T07:36:57.389Z,6.77
2022-12-01T07:37:57.367Z,6.77
2022-12-01T07:38:57.389Z,6.78
2022-12-01T07:39:57.376Z,6.78
2022-12-01T07:40:57.339Z,6.78
2022-12-01T07:41:57.339Z,6.80
2022-12-01T07:42:57.307Z,6.77
2022-12-01T07:43:57.318Z,6.78
2022-12-01T07:44:57.280Z,6.77
2022-12-01T07:45:57.310Z,6.75
2022-12-01T07:46:57.257Z,6.75
2022-12-01T07:47:57.238Z,6.74
2022-12-01T07:48:57.247Z,6.74
2022-12-01T07:49:57.217Z,6.74
2022-12-01T07:50:57.208Z,6.71
2022-12-01T07:51:57.187Z,6.74
2022-12-01T07:52:57.179Z,6.74
2022-12-01T07:53:57.190Z,6.75
2022-12-01T07:54:57.154Z,6.77
2022-12-01T07:55:57.138Z,6.75
2022-12-01T07:56:57.149Z,6.77
2022-12-01T07:57:57.107Z,6.77
2022-12-01T07:58:57.107Z,6.78
2022-12-01T07:59:57.087Z,6.77
2022-12-01T08:00:57.078Z,6.77
2022-12-01T08:01:57.100Z,6.78
2022-12-01T08:02:57.150Z,6.80
2022-12-01T08:03:57.054Z,6.80
2022-12-01T08:04:57.027Z,6.80
2022-12-01T08:05:57.007Z,6.82
2022-12-01T08:06:56.999Z,6.83
2022-12-01T08:07:57.026Z,6.85
2022-12-01T08:08:56.988Z,6.85
2022-12-01T08:09:56.988Z,6.80
2022-12-01T08:10:56.969Z,6.80
2022-12-01T08:11:56.938Z,6.78
2022-12-01T08:12:56.926Z,6.77
2022-12-01T08:13:56.908Z,6.77
2022-12-01T08:14:56.906Z,6.77
2022-12-01T08:15:56.947Z,6.77
2022-12-01T08:16:56.868Z,6.75
2022-12-01T08:17:56.847Z,6.77
2022-12-01T08:18:56.846Z,6.74
2022-12-01T08:19:56.847Z,6.74
2022-12-01T08:20:56.807Z,6.75
2022-12-01T08:21:56.787Z,6.72
2022-12-01T08:22:56.789Z,6.72
2022-12-01T08:23:56.788Z,6.71
2022-12-01T08:24:56.768Z,6.67
2022-12-01T08:25:56.737Z,6.68
2022-12-01T08:26:56.735Z,6.68
2022-12-01T08:27:56.776Z,6.68
2022-12-01T08:28:56.708Z,6.70
2022-12-01T08:29:56.707Z,6.71
2022-12-01T08:30:56.758Z,6.74
2022-12-01T08:31:56.668Z,6.74
2022-12-01T08:32:56.647Z,6.74
2022-12-01T08:33:56.637Z,6.75
2022-12-01T08:34:56.647Z,6.75
2022-12-01T08:35:56.607Z,6.71
2022-12-01T08:36:56.601Z,6.67
2022-12-01T08:37:56.583Z,6.68
2022-12-01T08:38:56.567Z,6.68
2022-12-01T08:39:56.567Z,6.68
2022-12-01T08:40:56.540Z,6.68
2022-12-01T08:41:56.556Z,6.68
2022-12-01T08:42:56.518Z,6.67
2022-12-01T08:43:58.408Z,6.67
2022-12-01T08:44:56.578Z,6.68
2022-12-01T08:45:56.485Z,6.68
2022-12-01T08:46:56.623Z,6.68
2022-12-01T08:47:56.459Z,6.68
2022-12-01T08:48:56.444Z,6.68
2022-12-01T08:49:56.438Z,6.71
2022-12-01T08:50:56.436Z,6.68
2022-12-01T08:51:56.402Z,6.65
2022-12-01T08:52:56.405Z,6.65
2022-12-01T08:53:56.366Z,6.67
2022-12-01T08:54:56.377Z,6.67
2022-12-01T08:55:56.348Z,6.68
2022-12-01T08:56:56.367Z,6.68
2022-12-01T08:57:56.316Z,6.67
2022-12-01T08:58:56.315Z,6.67
2022-12-01T08:59:56.310Z,6.68
2022-12-01T09:00:56.294Z,6.68
2022-12-01T09:01:56.340Z,6.71
2022-12-01T09:02:56.313Z,6.71
2022-12-01T09:03:56.236Z,6.71
2022-12-01T09:04:56.266Z,6.70
2022-12-01T09:05:56.217Z,6.68
2022-12-01T09:06:56.209Z,6.65
2022-12-01T09:07:56.220Z,6.64
2022-12-01T09:08:56.179Z,6.64
2022-12-01T09:09:56.176Z,6.64
2022-12-01T09:10:56.156Z,6.60
2022-12-01T09:11:56.136Z,6.59
2022-12-01T09:12:56.127Z,6.57
2022-12-01T09:13:56.106Z,6.57
2022-12-01T09:14:56.115Z,6.59
2022-12-01T09:15:56.130Z,6.60
2022-12-01T09:16:56.076Z,6.62
2022-12-01T09:17:56.056Z,6.60
2022-12-01T09:18:56.037Z,6.62
2022-12-01T09:19:56.056Z,6.60
2022-12-01T09:20:56.018Z,6.57
2022-12-01T09:21:55.996Z,6.57
2022-12-01T09:22:55.994Z,6.59
2022-12-01T09:23:55.977Z,6.59
2022-12-01T09:24:55.977Z,6.59
2022-12-01T09:25:55.946Z,6.59
2022-12-01T09:26:55.956Z,6.56
2022-12-01T09:27:55.926Z,6.54
2022-12-01T09:28:55.906Z,6.53
2022-12-01T09:29:55.913Z,6.56
2022-12-01T09:30:56.089Z,6.57
2022-12-01T09:31:55.908Z,6.59
2022-12-01T09:32:55.856Z,6.60
2022-12-01T09:33:55.836Z,6.62
2022-12-01T09:34:55.847Z,6.62
2022-12-01T09:35:55.816Z,6.62
2022-12-01T09:36:55.810Z,6.64
2022-12-01T09:37:55.786Z,6.62
2022-12-01T09:38:55.787Z,6.60
2022-12-01T09:39:55.775Z,6.62
2022-12-01T09:40:55.745Z,6.62
2022-12-01T09:41:55.739Z,6.64
2022-12-01T09:42:55.728Z,6.62
2022-12-01T09:43:55.706Z,6.62
2022-12-01T09:44:55.726Z,6.62
2022-12-01T09:45:55.686Z,6.64
2022-12-01T09:46:55.712Z,6.67
2022-12-01T09:47:55.694Z,6.68
2022-12-01T09:48:55.653Z,6.70
2022-12-01T09:49:55.647Z,6.67
2022-12-01T09:50:55.616Z,6.65
2022-12-01T09:51:55.607Z,6.64
2022-12-01T09:52:55.600Z,6.65
2022-12-01T09:53:55.591Z,6.68
2022-12-01T09:54:55.575Z,6.67
2022-12-01T09:56:00.638Z,6.67
2022-12-01T09:56:56.543Z,6.64
2022-12-01T09:57:55.538Z,6.64
2022-12-01T09:58:55.529Z,6.62
2022-12-01T09:59:55.506Z,6.64
2022-12-01T10:00:55.566Z,6.64
2022-12-01T10:01:55.524Z,6.65
2022-12-01T10:02:55.466Z,6.65
2022-12-01T10:03:55.445Z,6.64
2022-12-01T10:04:55.512Z,6.67
2022-12-01T10:06:26.625Z,6.65
2022-12-01T10:06:56.419Z,6.65
2022-12-01T10:07:55.448Z,6.67
2022-12-01T10:08:55.395Z,6.68
2022-12-01T10:09:55.406Z,6.68
2022-12-01T10:10:55.376Z,6.68
2022-12-01T10:11:55.335Z,6.67
2022-12-01T10:12:55.334Z,6.68
2022-12-01T10:13:55.326Z,6.67
2022-12-01T10:14:55.309Z,6.68
2022-12-01T10:15:55.373Z,6.71
2022-12-01T10:16:55.278Z,6.70
2022-12-01T10:17:55.277Z,6.70
2022-12-01T10:18:55.277Z,6.65
2022-12-01T10:19:55.227Z,6.65
2022-12-01T10:20:55.246Z,6.68
2022-12-01T10:21:55.216Z,6.70
2022-12-01T10:22:55.195Z,6.71
2022-12-01T10:23:55.194Z,6.71
2022-12-01T10:24:55.175Z,6.70
2022-12-01T10:25:55.196Z,6.68
2022-12-01T10:26:55.151Z,6.71
2022-12-01T10:27:55.149Z,6.68
2022-12-01T10:28:55.136Z,6.71
2022-12-01T10:29:55.120Z,6.71
2022-12-01T10:30:55.106Z,6.70
2022-12-01T10:31:55.117Z,6.68
2022-12-01T10:32:55.069Z,6.68
2022-12-01T10:33:55.063Z,6.68
2022-12-01T10:34:55.035Z,6.71
2022-12-01T10:35:55.069Z,6.71
2022-12-01T10:36:55.016Z,6.72
2022-12-01T10:37:55.084Z,6.72
2022-12-01T10:38:55.003Z,6.74
2022-12-01T10:39:54.987Z,6.77
2022-12-01T10:40:54.986Z,6.75
2022-12-01T10:41:54.956Z,6.77
2022-12-01T10:42:54.996Z,6.80
2022-12-01T10:43:54.946Z,6.82
2022-12-01T10:44:54.906Z,6.78
2022-12-01T10:45:54.930Z,6.82
2022-12-01T10:46:54.958Z,6.82
2022-12-01T10:47:57.659Z,6.83
2022-12-01T10:48:54.857Z,6.83
2022-12-01T10:49:54.848Z,6.85
2022-12-01T10:50:54.844Z,6.85
2022-12-01T10:51:54.838Z,6.83
2022-12-01T10:52:54.805Z,6.83
2022-12-01T10:53:54.807Z,6.80
2022-12-01T10:54:54.786Z,6.78
2022-12-01T10:55:54.798Z,6.78
2022-12-01T10:56:54.759Z,6.82
2022-12-01T10:57:54.744Z,6.80
2022-12-01T10:58:54.734Z,6.80
2022-12-01T10:59:54.718Z,6.77
2022-12-01T11:01:02.251Z,6.75
2022-12-01T11:01:55.886Z,6.77
2022-12-01T11:02:54.887Z,6.75
2022-12-01T11:03:54.704Z,6.77
2022-12-01T11:04:54.688Z,6.77
2022-12-01T11:05:54.686Z,6.75
2022-12-01T11:06:54.632Z,6.75
2022-12-01T11:07:54.713Z,6.77
2022-12-01T11:08:54.598Z,6.78
2022-12-01T11:09:54.607Z,6.75
2022-12-01T11:10:54.577Z,6.77
2022-12-01T11:11:54.584Z,6.77
2022-12-01T11:12:54.546Z,6.75
2022-12-01T11:13:54.516Z,6.77
2022-12-01T11:14:54.534Z,6.77
2022-12-01T11:15:54.506Z,6.74
2022-12-01T11:16:54.605Z,6.71
2022-12-01T11:17:54.485Z,6.72
2022-12-01T11:18:54.502Z,6.72
2022-12-01T11:19:54.510Z,6.71
2022-12-01T11:20:54.447Z,6.68
2022-12-01T11:21:54.455Z,6.67
2022-12-01T11:22:54.418Z,6.62
2022-12-01T11:23:54.414Z,6.62
2022-12-01T11:24:54.395Z,6.62
2022-12-01T11:25:54.385Z,6.64
2022-12-01T11:26:54.391Z,6.62
2022-12-01T11:27:54.346Z,6.65
2022-12-01T11:28:54.334Z,6.68
2022-12-01T11:29:54.335Z,6.68
2022-12-01T11:30:56.696Z,6.74
2022-12-01T11:31:54.375Z,6.74
2022-12-01T11:32:54.284Z,6.78
2022-12-01T11:33:54.285Z,6.77
2022-12-01T11:34:54.257Z,6.78
2022-12-01T11:35:54.252Z,6.80
2022-12-01T11:36:54.246Z,6.78
2022-12-01T11:38:27.579Z,6.82
2022-12-01T11:38:55.204Z,6.83
2022-12-01T11:39:54.200Z,6.80
2022-12-01T11:40:54.178Z,6.83
2022-12-01T11:41:54.197Z,6.85
2022-12-01T11:42:54.155Z,6.83
2022-12-01T11:44:01.629Z,6.85
2022-12-01T11:44:55.124Z,6.86
2022-12-01T11:45:54.152Z,6.86
2022-12-01T11:47:07.813Z,6.86
2022-12-01T11:47:55.113Z,6.85
2022-12-01T11:48:54.098Z,6.86
2022-12-01T11:49:54.145Z,6.87
2022-12-01T11:50:54.063Z,6.86
2022-12-01T11:51:54.044Z,6.86
2022-12-01T11:52:54.078Z,6.86
2022-12-01T11:53:54.015Z,6.86
2022-12-01T11:54:53.995Z,6.85
2022-12-01T11:55:54.645Z,6.78
2022-12-01T11:57:25.340Z,6.75
2022-12-01T11:57:54.982Z,6.72
2022-12-01T11:58:53.968Z,6.74
2022-12-01T11:59:53.944Z,6.72
2022-12-01T12:00:53.915Z,6.70
2022-12-01T12:01:53.998Z,6.71
2022-12-01T12:02:53.923Z,6.71
2022-12-01T12:03:53.932Z,6.71
2022-12-01T12:04:53.923Z,6.72
2022-12-01T12:05:57.599Z,6.75
2022-12-01T12:06:54.837Z,6.77
2022-12-01T12:07:53.893Z,6.77
2022-12-01T12:08:53.855Z,6.78
2022-12-01T12:09:53.804Z,6.77
2022-12-01T12:10:53.856Z,6.77
2022-12-01T12:11:53.787Z,6.74
2022-12-01T12:12:53.816Z,6.74
2022-12-01T12:13:53.764Z,6.75
2022-12-01T12:14:53.737Z,6.77
2022-12-01T12:15:53.729Z,6.78
2022-12-01T12:16:53.722Z,6.80
2022-12-01T12:17:53.758Z,6.77
2022-12-01T12:18:53.686Z,6.74
2022-12-01T12:20:09.764Z,6.74
2022-12-01T12:20:54.665Z,6.74
2022-12-01T12:21:53.654Z,6.74
2022-12-01T12:22:55.675Z,6.74
2022-12-01T12:23:53.625Z,6.72
2022-12-01T12:24:53.604Z,6.68
2022-12-01T12:25:53.612Z,6.68
2022-12-01T12:26:53.575Z,6.68
2022-12-01T12:27:53.585Z,6.67
2022-12-01T12:28:53.585Z,6.70
2022-12-01T12:29:53.556Z,6.70
2022-12-01T12:30:53.569Z,6.72
2022-12-01T12:31:53.525Z,6.71
2022-12-01T12:32:53.524Z,6.72
2022-12-01T12:33:53.501Z,6.71
2022-12-01T12:34:53.601Z,6.72
2022-12-01T12:35:53.488Z,6.74
2022-12-01T12:36:53.445Z,6.74
2022-12-01T12:37:53.465Z,6.74
2022-12-01T12:38:53.425Z,6.72
2022-12-01T12:39:53.413Z,6.72
2022-12-01T12:40:53.397Z,6.71
2022-12-01T12:41:53.394Z,6.70
2022-12-01T12:42:53.365Z,6.64
2022-12-01T12:43:53.384Z,6.62
2022-12-01T12:44:53.355Z,6.64
2022-12-01T12:45:53.375Z,6.64
2022-12-01T12:46:53.314Z,6.64
2022-12-01T12:47:53.315Z,6.67
2022-12-01T12:49:54.305Z,6.70
2022-12-01T12:50:53.508Z,6.71
2022-12-01T12:51:53.344Z,6.70
2022-12-01T12:52:53.567Z,6.72
2022-12-01T12:53:53.327Z,6.72
2022-12-01T12:54:53.385Z,6.71
2022-12-01T12:55:53.234Z,6.71
2022-12-01T12:56:53.195Z,6.72
2022-12-01T12:57:53.184Z,6.72
2022-12-01T12:58:53.184Z,6.71
2022-12-01T12:59:53.285Z,6.68
2022-12-01T13:01:00.267Z,6.65
2022-12-01T13:01:53.168Z,6.67
2022-12-01T13:02:53.163Z,6.67
2022-12-01T13:03:53.142Z,6.68
2022-12-01T13:04:53.089Z,6.70
2022-12-01T13:05:53.088Z,6.68
2022-12-01T13:06:53.087Z,6.70
2022-12-01T13:07:53.103Z,6.71
2022-12-01T13:08:53.048Z,6.70
2022-12-01T13:09:53.057Z,6.70
2022-12-01T13:10:53.019Z,6.68
2022-12-01T13:11:52.996Z,6.68
2022-12-01T13:12:52.981Z,6.64
2022-12-01T13:13:52.967Z,6.62
2022-12-01T13:14:56.496Z,6.62
2022-12-01T13:15:54.027Z,6.62
2022-12-01T13:16:52.937Z,6.62
2022-12-01T13:17:52.907Z,6.60
2022-12-01T13:18:52.909Z,6.62